Time;durP1;ratioP1;P1;durP2;ratioP2;P2;SDS_P1;SDS_P2;PMS_P1;PMS_P2;Temp;Humidity;BMP_temperature;BMP_pressure;BME280_temperature;BME280_humidity;BME280_pressure;Samples;Min_cycle;Max_cycle;Signal;HPM_P1;HPM_P2
2023/06/25 00:00:44;;;;;;;11.00;9.10;;;;;;;15.88;77.65;100824.13;105476;278;38345;-71
2023/06/25 00:03:38;;;;;;;13.00;9.40;;;;;;;15.82;77.73;100826.73;105520;278;38565;-71
2023/06/25 00:06:12;;;;;;;12.10;9.80;;;;;;;15.78;77.97;100822.73;105482;278;38477;-71
2023/06/25 00:08:46;;;;;;;13.00;9.30;;;;;;;15.74;77.87;100826.27;105262;278;39500;-71
2023/06/25 00:11:21;;;;;;;11.20;9.70;;;;;;;15.70;77.88;100825.61;105263;278;39542;-71
2023/06/25 00:13:55;;;;;;;12.20;9.90;;;;;;;15.67;77.97;100824.52;105493;278;40397;-71
2023/06/25 00:16:29;;;;;;;11.50;10.10;;;;;;;15.65;78.00;100823.77;105480;278;39850;-71
2023/06/25 00:19:03;;;;;;;11.30;10.10;;;;;;;15.61;77.94;100826.42;105492;278;38244;-71
2023/06/25 00:21:38;;;;;;;13.70;10.10;;;;;;;15.58;77.98;100825.35;105482;278;38240;-71
2023/06/25 00:24:13;;;;;;;10.60;9.60;;;;;;;15.54;78.15;100824.83;105468;278;39971;-71
2023/06/25 00:26:47;;;;;;;11.00;9.70;;;;;;;15.47;78.14;100822.36;105490;278;38566;-71
2023/06/25 00:29:21;;;;;;;12.20;10.80;;;;;;;15.44;78.49;100826.18;105503;278;38739;-71
2023/06/25 00:31:55;;;;;;;12.90;10.50;;;;;;;15.44;78.76;100825.86;105491;278;38509;-71
2023/06/25 00:34:29;;;;;;;11.50;10.30;;;;;;;15.40;78.76;100827.30;105464;278;38519;-71
2023/06/25 00:37:03;;;;;;;11.60;9.80;;;;;;;15.37;78.80;100820.77;105449;278;39390;-71
2023/06/25 00:39:37;;;;;;;14.60;10.40;;;;;;;15.37;78.89;100823.44;105887;278;38582;-71
2023/06/25 00:42:11;;;;;;;11.30;10.00;;;;;;;15.38;78.93;100825.14;105359;278;189803;-71
2023/06/25 00:44:45;;;;;;;13.40;11.50;;;;;;;15.36;79.01;100823.80;105464;278;38491;-71
2023/06/25 00:47:22;;;;;;;13.60;10.60;;;;;;;15.34;79.07;100818.11;105522;278;38275;-71
2023/06/25 00:49:56;;;;;;;11.40;10.00;;;;;;;15.30;79.26;100819.00;105514;278;38710;-72
2023/06/25 00:52:31;;;;;;;11.10;10.00;;;;;;;15.27;79.31;100815.98;105486;278;38732;-71
2023/06/25 00:55:08;;;;;;;10.70;9.70;;;;;;;15.25;79.20;100817.34;105492;278;38807;-71
2023/06/25 00:57:42;;;;;;;11.10;9.80;;;;;;;15.21;79.12;100814.73;105903;278;40112;-71
2023/06/25 01:00:18;;;;;;;11.90;10.60;;;;;;;15.20;79.44;100813.35;105474;278;38843;-71
2023/06/25 01:02:56;;;;;;;12.60;10.30;;;;;;;15.19;79.50;100814.14;105492;278;39426;-71
2023/06/25 01:05:32;;;;;;;10.70;9.60;;;;;;;15.15;79.67;100815.54;105520;278;38782;-71
2023/06/25 01:08:08;;;;;;;10.90;9.90;;;;;;;15.13;79.68;100810.53;105924;278;38955;-71
2023/06/25 01:10:42;;;;;;;11.80;9.70;;;;;;;15.12;79.79;100811.46;105899;278;38848;-71
2023/06/25 01:13:16;;;;;;;10.90;9.90;;;;;;;15.10;79.75;100807.19;105493;278;38401;-71
2023/06/25 01:15:50;;;;;;;12.20;9.90;;;;;;;15.07;79.73;100807.34;105403;278;174168;-71
2023/06/25 01:18:25;;;;;;;11.80;9.70;;;;;;;15.04;79.70;100806.24;105502;277;38481;-71
2023/06/25 01:21:00;;;;;;;10.30;9.10;;;;;;;15.03;79.59;100805.44;105351;279;38529;-71
2023/06/25 01:23:34;;;;;;;9.60;8.40;;;;;;;15.01;79.68;100809.77;105845;279;38288;-71
2023/06/25 01:26:08;;;;;;;9.60;8.80;;;;;;;14.98;79.53;100806.72;105857;287;39377;-71
2023/06/25 01:28:42;;;;;;;10.20;9.20;;;;;;;14.94;79.59;100804.28;105463;278;38280;-71
2023/06/25 01:31:17;;;;;;;10.30;8.40;;;;;;;14.90;79.61;100798.70;105457;278;40135;-71
2023/06/25 01:33:51;;;;;;;9.90;8.40;;;;;;;14.88;79.52;100794.95;105246;279;38489;-71
2023/06/25 01:36:25;;;;;;;9.90;8.30;;;;;;;14.87;79.58;100799.72;105280;279;38672;-71
2023/06/25 01:38:59;;;;;;;10.20;8.70;;;;;;;14.86;79.60;100797.48;105454;278;39937;-72
2023/06/25 01:41:33;;;;;;;10.60;8.60;;;;;;;14.85;79.83;100801.92;105339;283;174282;-71
2023/06/25 01:44:08;;;;;;;8.90;8.00;;;;;;;14.84;79.90;100803.34;105418;278;38738;-71
2023/06/25 01:46:42;;;;;;;9.30;8.30;;;;;;;14.83;79.72;100807.48;105237;278;39044;-71
2023/06/25 01:49:16;;;;;;;8.70;7.90;;;;;;;14.81;79.65;100806.36;105454;278;38400;-71
2023/06/25 01:51:50;;;;;;;10.00;8.30;;;;;;;14.80;79.78;100806.40;105444;278;38527;-71
2023/06/25 01:54:24;;;;;;;11.30;8.70;;;;;;;14.76;79.54;100808.50;105858;278;40469;-71
2023/06/25 01:56:59;;;;;;;9.40;8.40;;;;;;;14.72;79.47;100810.30;105882;278;38717;-71
2023/06/25 01:59:34;;;;;;;10.30;8.60;;;;;;;14.65;79.37;100805.70;105455;279;38389;-71
2023/06/25 02:02:08;;;;;;;9.40;7.60;;;;;;;14.58;79.28;100805.16;105423;278;38671;-71
2023/06/25 02:04:42;;;;;;;9.10;8.20;;;;;;;14.52;79.41;100801.42;105314;278;174336;-71
2023/06/25 02:07:16;;;;;;;8.50;7.70;;;;;;;14.50;79.74;100802.38;105451;278;38802;-71
2023/06/25 02:09:51;;;;;;;14.60;9.20;;;;;;;14.52;79.99;100803.02;105418;278;38522;-71
2023/06/25 02:12:25;;;;;;;10.40;8.30;;;;;;;14.50;80.08;100796.23;105861;278;38390;-71
2023/06/25 02:14:59;;;;;;;8.00;7.30;;;;;;;14.45;79.68;100795.92;105430;278;38582;-71
2023/06/25 02:17:33;;;;;;;9.00;8.10;;;;;;;14.40;79.80;100792.98;105429;278;38469;-71
2023/06/25 02:20:09;;;;;;;10.50;9.10;;;;;;;14.39;79.97;100795.31;105445;278;38251;-71
2023/06/25 02:22:44;;;;;;;10.30;8.10;;;;;;;14.37;80.05;100793.63;105413;282;38886;-71
2023/06/25 02:25:18;;;;;;;9.30;8.10;;;;;;;14.34;80.04;100794.13;105848;278;40274;-70
2023/06/25 02:27:52;;;;;;;9.50;7.70;;;;;;;14.31;80.12;100792.88;105434;278;38899;-70
2023/06/25 02:30:26;;;;;;;8.50;7.60;;;;;;;14.31;80.38;100793.05;105444;278;38800;-70
2023/06/25 02:33:00;;;;;;;10.00;7.60;;;;;;;14.34;80.86;100793.42;105412;279;39463;-71
2023/06/25 02:35:35;;;;;;;8.90;8.00;;;;;;;14.36;80.64;100792.83;105400;278;39562;-71
2023/06/25 02:38:09;;;;;;;9.40;7.80;;;;;;;14.32;80.55;100790.40;105393;278;38295;-71
2023/06/25 02:40:44;;;;;;;9.60;7.50;;;;;;;14.29;80.61;100789.99;105269;279;38645;-71
2023/06/25 02:43:18;;;;;;;7.90;7.10;;;;;;;14.28;80.77;100787.93;105875;278;38630;-71
2023/06/25 02:45:52;;;;;;;7.90;7.10;;;;;;;14.28;80.82;100785.14;105427;278;38361;-71
2023/06/25 02:48:26;;;;;;;8.30;7.40;;;;;;;14.30;81.01;100786.98;105430;278;39377;-71
2023/06/25 02:51:00;;;;;;;8.60;7.80;;;;;;;14.35;81.29;100789.71;105434;278;39412;-71
2023/06/25 02:53:34;;;;;;;8.80;7.50;;;;;;;14.38;81.40;100789.40;105417;278;38256;-71
2023/06/25 02:56:09;;;;;;;8.60;7.30;;;;;;;14.41;81.47;100789.41;105253;279;38501;-71
2023/06/25 02:58:43;;;;;;;8.00;7.00;;;;;;;14.46;81.66;100787.41;105850;278;38263;-71
2023/06/25 03:01:17;;;;;;;7.80;7.00;;;;;;;14.56;81.92;100786.66;105439;278;38356;-71
2023/06/25 03:03:51;;;;;;;8.40;7.40;;;;;;;14.65;81.90;100788.14;105425;278;38242;-71
2023/06/25 03:06:25;;;;;;;9.80;8.00;;;;;;;14.73;81.95;100783.20;105446;278;38249;-71
2023/06/25 03:09:00;;;;;;;9.30;7.40;;;;;;;14.78;81.91;100786.83;105265;279;38247;-71
2023/06/25 03:11:34;;;;;;;7.70;7.00;;;;;;;14.85;82.04;100789.48;105426;278;38357;-71
2023/06/25 03:14:09;;;;;;;8.40;7.50;;;;;;;14.94;82.10;100797.59;105429;278;38563;-71
2023/06/25 03:16:43;;;;;;;8.70;7.20;;;;;;;15.05;81.96;100798.66;105424;278;38367;-71
2023/06/25 03:19:17;;;;;;;8.70;7.80;;;;;;;15.11;81.80;100797.15;105847;278;38344;-71
2023/06/25 03:21:51;;;;;;;10.10;7.40;;;;;;;15.14;81.71;100797.70;105415;278;38646;-71
2023/06/25 03:24:25;;;;;;;8.40;7.30;;;;;;;15.20;81.77;100792.80;105853;278;39297;-71
2023/06/25 03:26:59;;;;;;;8.50;7.60;;;;;;;15.30;81.56;100799.86;105864;279;38812;-71
2023/06/25 03:29:33;;;;;;;8.30;7.40;;;;;;;15.41;81.59;100798.77;105454;279;39389;-71
2023/06/25 03:32:08;;;;;;;9.60;8.00;;;;;;;15.53;81.66;100799.55;105447;278;38528;-71
2023/06/25 03:34:44;;;;;;;9.20;7.60;;;;;;;15.71;81.45;100799.36;105447;278;38463;-71
2023/06/25 03:37:18;;;;;;;7.80;7.10;;;;;;;15.95;81.40;100801.08;105440;278;38380;-71
2023/06/25 03:39:53;;;;;;;8.20;7.30;;;;;;;16.29;81.18;100799.02;105403;278;38462;-71
2023/06/25 03:42:28;;;;;;;8.30;7.30;;;;;;;16.60;80.80;100800.83;105259;279;40012;-71
2023/06/25 03:45:02;;;;;;;8.00;7.30;;;;;;;17.16;81.97;100801.34;105454;278;39635;-71
2023/06/25 03:47:36;;;;;;;8.40;7.20;;;;;;;17.70;79.77;100791.95;105871;278;39865;-71
2023/06/25 03:50:11;;;;;;;8.50;7.50;;;;;;;17.79;77.71;100787.73;105447;278;39632;-71
2023/06/25 03:52:46;;;;;;;8.00;7.20;;;;;;;17.90;77.10;100788.48;105449;278;38887;-71
2023/06/25 03:55:20;;;;;;;8.30;7.20;;;;;;;18.10;76.44;100780.87;105409;278;39505;-71
2023/06/25 03:57:56;;;;;;;9.00;8.10;;;;;;;18.36;76.57;100781.13;105243;279;38538;-71
2023/06/25 04:00:31;;;;;;;8.30;7.50;;;;;;;18.97;76.85;100780.89;105826;278;38849;-71
2023/06/25 04:03:05;;;;;;;8.20;7.40;;;;;;;19.72;75.57;100779.00;105432;278;39429;-71
2023/06/25 04:05:39;;;;;;;8.80;7.10;;;;;;;20.36;72.23;100785.30;105252;280;38613;-71
2023/06/25 04:08:13;;;;;;;7.60;6.90;;;;;;;20.36;69.61;100788.06;105444;279;38358;-71
2023/06/25 04:10:48;;;;;;;7.90;7.10;;;;;;;20.06;67.99;100793.60;105458;278;38361;-71
2023/06/25 04:13:42;;;;;;;7.70;7.00;;;;;;;19.69;67.48;100797.27;105405;279;38419;-71
2023/06/25 04:16:17;;;;;;;9.40;7.50;;;;;;;19.39;67.53;100798.92;105221;279;40017;-71
2023/06/25 04:18:51;;;;;;;8.30;7.20;;;;;;;19.17;67.88;100798.00;105424;278;39656;-71
2023/06/25 04:21:24;;;;;;;9.10;8.10;;;;;;;19.00;68.38;100797.66;105852;278;39142;-71
2023/06/25 04:24:00;;;;;;;11.80;8.10;;;;;;;18.92;68.88;100798.55;105439;278;38522;-72
2023/06/25 04:26:34;;;;;;;9.70;8.30;;;;;;;18.89;68.91;100800.91;105273;279;39443;-72
2023/06/25 04:29:09;;;;;;;7.90;6.90;;;;;;;18.82;68.95;100804.71;105431;278;38283;-72
2023/06/25 04:31:43;;;;;;;9.40;7.30;;;;;;;18.77;69.19;100800.80;105859;279;38781;-72
2023/06/25 04:34:18;;;;;;;8.10;7.10;;;;;;;18.77;69.38;100799.73;105900;278;38416;-71
2023/06/25 04:36:52;;;;;;;8.30;7.30;;;;;;;18.86;69.73;100797.73;105732;278;174010;-71
2023/06/25 04:39:27;;;;;;;9.20;8.30;;;;;;;18.96;69.86;100795.84;105451;278;38961;-72
2023/06/25 04:42:01;;;;;;;9.80;8.70;;;;;;;18.98;69.52;100794.95;105438;278;38673;-72
2023/06/25 04:44:35;;;;;;;9.60;8.50;;;;;;;18.96;69.60;100793.31;105440;278;38268;-72
2023/06/25 04:47:09;;;;;;;9.50;8.50;;;;;;;19.01;70.05;100791.08;105862;278;38703;-72
2023/06/25 04:49:43;;;;;;;10.80;8.80;;;;;;;19.12;70.15;100791.25;105816;279;39630;-71
2023/06/25 04:52:19;;;;;;;9.60;8.20;;;;;;;19.35;70.04;100792.48;105473;278;38243;-71
2023/06/25 04:54:53;;;;;;;9.30;8.30;;;;;;;19.76;69.70;100789.55;105396;278;38274;-71
2023/06/25 04:57:27;;;;;;;11.00;8.10;;;;;;;20.27;69.00;100785.41;105880;278;38362;-71
2023/06/25 05:00:01;;;;;;;10.00;8.50;;;;;;;20.61;67.21;100787.23;105452;279;38248;-71
2023/06/25 05:02:36;;;;;;;9.00;8.10;;;;;;;20.89;65.92;100789.01;105298;278;173885;-71
2023/06/25 05:05:11;;;;;;;9.50;8.40;;;;;;;21.48;66.19;100785.98;105448;278;39475;-71
2023/06/25 05:07:45;;;;;;;8.70;7.80;;;;;;;22.28;65.48;100780.63;105447;278;38471;-71
2023/06/25 05:10:19;;;;;;;9.10;7.70;;;;;;;23.21;64.69;100774.85;105440;278;38565;-71
2023/06/25 05:12:53;;;;;;;10.30;8.00;;;;;;;24.22;61.37;100777.70;105410;278;39664;-71
2023/06/25 05:15:27;;;;;;;9.20;8.10;;;;;;;24.98;57.11;100782.27;105450;278;38556;-71
2023/06/25 05:18:02;;;;;;;12.60;8.40;;;;;;;25.71;56.88;100778.64;105427;278;38459;-71
2023/06/25 05:20:37;;;;;;;8.70;7.90;;;;;;;26.63;53.67;100771.88;105281;279;39451;-72
2023/06/25 05:23:12;;;;;;;8.20;7.40;;;;;;;27.21;50.61;100773.98;105430;278;38357;-72
2023/06/25 05:25:48;;;;;;;8.40;7.00;;;;;;;27.80;49.76;100769.63;105417;278;38400;-72
2023/06/25 05:28:23;;;;;;;8.90;7.60;;;;;;;28.49;47.34;100771.14;105266;279;38320;-72
2023/06/25 05:30:57;;;;;;;7.90;7.10;;;;;;;29.04;45.98;100772.20;105436;278;38447;-72
2023/06/25 05:33:32;;;;;;;9.30;7.20;;;;;;;29.30;44.52;100780.25;105258;279;39696;-72
2023/06/25 05:36:10;;;;;;;7.00;6.30;;;;;;;29.65;43.44;100783.46;105870;278;38371;-72
2023/06/25 05:38:44;;;;;;;8.20;6.90;;;;;;;30.01;41.98;100780.58;105446;278;40075;-73
2023/06/25 05:41:19;;;;;;;8.20;7.20;;;;;;;30.01;41.19;100783.48;105460;278;38316;-72
2023/06/25 05:43:53;;;;;;;7.10;6.40;;;;;;;30.19;40.64;100789.08;105450;279;38448;-72
2023/06/25 05:46:27;;;;;;;7.30;6.60;;;;;;;30.33;40.26;100790.46;105791;279;173429;-72
2023/06/25 05:49:02;;;;;;;8.50;6.90;;;;;;;30.40;39.83;100783.54;105446;279;38390;-72
2023/06/25 05:51:38;;;;;;;7.30;6.60;;;;;;;30.71;39.89;100777.71;105439;278;38529;-72
2023/06/25 05:54:15;;;;;;;7.40;6.50;;;;;;;31.17;39.24;100774.29;105106;279;39429;-73
2023/06/25 05:56:49;;;;;;;7.40;6.60;;;;;;;31.40;37.88;100777.45;105367;279;38234;-72
2023/06/25 05:59:23;;;;;;;6.80;6.10;;;;;;;31.52;37.24;100776.08;105319;279;38262;-73
2023/06/25 06:01:57;;;;;;;6.50;6.00;;;;;;;31.72;36.75;100772.59;105342;279;38354;-73
2023/06/25 06:04:32;;;;;;;7.40;6.80;;;;;;;31.72;36.73;100770.36;105333;279;38963;-73
2023/06/25 06:07:07;;;;;;;6.90;5.70;;;;;;;32.02;36.35;100770.89;105354;279;39596;-73
2023/06/25 06:09:40;;;;;;;7.00;5.70;;;;;;;32.60;36.09;100764.51;105830;279;38294;-73
2023/06/25 06:12:15;;;;;;;7.20;6.00;;;;;;;32.81;35.35;100765.60;105220;279;170804;-73
2023/06/25 06:14:51;;;;;;;6.30;5.50;;;;;;;33.11;34.66;100764.34;105823;279;39340;-73
2023/06/25 06:17:25;;;;;;;5.60;5.10;;;;;;;33.47;34.51;100767.64;105329;279;38811;-73
2023/06/25 06:20:00;;;;;;;6.40;5.80;;;;;;;33.76;33.37;100766.28;105320;279;39776;-73
2023/06/25 06:22:34;;;;;;;5.60;5.00;;;;;;;33.71;32.74;100770.77;105802;279;38779;-74
2023/06/25 06:25:09;;;;;;;5.50;5.00;;;;;;;33.87;32.68;100771.70;105783;279;39689;-73
2023/06/25 06:27:44;;;;;;;6.70;5.20;;;;;;;34.19;32.70;100767.60;105332;279;38463;-73
2023/06/25 06:30:18;;;;;;;5.20;4.60;;;;;;;34.47;31.87;100771.25;105081;279;390408;-73
2023/06/25 06:32:53;;;;;;;6.20;4.90;;;;;;;34.73;30.97;100769.36;105357;279;38288;-73
2023/06/25 06:35:28;;;;;;;5.50;5.00;;;;;;;34.74;31.30;100770.28;105341;278;38416;-73
2023/06/25 06:38:04;;;;;;;5.80;5.30;;;;;;;34.76;30.88;100769.86;105380;279;38276;-73
2023/06/25 06:40:39;;;;;;;5.40;5.00;;;;;;;35.18;30.39;100771.54;105386;279;38674;-73
2023/06/25 06:43:17;;;;;;;5.00;4.60;;;;;;;35.39;29.96;100772.45;105859;278;38250;-73
2023/06/25 06:45:54;;;;;;;4.80;4.40;;;;;;;35.69;29.14;100773.46;105421;278;38380;-72
2023/06/25 06:48:30;;;;;;;4.90;4.40;;;;;;;35.76;28.47;100775.77;105443;278;38858;-73
2023/06/25 06:51:05;;;;;;;5.20;4.70;;;;;;;35.82;28.13;100775.81;104802;278;883600;-73
2023/06/25 06:53:41;;;;;;;5.10;4.60;;;;;;;36.01;28.05;100777.02;105407;279;38532;-73
2023/06/25 06:56:18;;;;;;;5.20;4.70;;;;;;;36.04;27.88;100769.69;105855;278;38247;-73
2023/06/25 06:58:52;;;;;;;5.00;4.60;;;;;;;36.04;28.15;100771.83;105443;278;38694;-73
2023/06/25 07:01:26;;;;;;;4.90;4.40;;;;;;;36.19;27.87;100772.81;105838;278;38237;-73
2023/06/25 07:04:01;;;;;;;5.30;4.30;;;;;;;36.42;27.52;100772.79;105273;280;39751;-73
2023/06/25 07:06:35;;;;;;;4.90;4.50;;;;;;;36.58;26.96;100774.98;105434;278;38315;-73
2023/06/25 07:09:10;;;;;;;5.30;4.80;;;;;;;36.77;27.30;100769.77;105423;278;39384;-73
2023/06/25 07:11:44;;;;;;;5.20;4.70;;;;;;;37.02;26.52;100765.33;105442;278;38514;-73
2023/06/25 07:14:19;;;;;;;4.80;4.20;;;;;;;36.78;25.90;100766.47;105848;278;38753;-73
2023/06/25 07:16:53;;;;;;;4.70;4.30;;;;;;;36.56;26.26;100761.98;105460;279;38774;-73
2023/06/25 07:19:27;;;;;;;5.30;4.80;;;;;;;36.35;25.95;100765.27;105816;278;39564;-73
2023/06/25 07:22:01;;;;;;;5.40;4.50;;;;;;;36.26;25.84;100763.13;105439;279;38239;-73
2023/06/25 07:24:35;;;;;;;5.40;4.90;;;;;;;36.20;26.52;100759.05;105428;278;38709;-73
2023/06/25 07:27:09;;;;;;;5.20;4.70;;;;;;;36.33;26.69;100755.50;105434;278;38984;-73
2023/06/25 07:29:44;;;;;;;4.90;4.40;;;;;;;36.48;27.01;100753.77;105868;279;39477;-73
2023/06/25 07:32:18;;;;;;;5.10;4.70;;;;;;;36.69;26.53;100753.39;105868;278;38581;-73
2023/06/25 07:34:55;;;;;;;5.20;4.80;;;;;;;36.77;26.98;100751.31;105411;279;38588;-73
2023/06/25 07:37:29;;;;;;;6.90;5.00;;;;;;;37.00;27.14;100756.37;105463;278;38788;-73
2023/06/25 07:40:04;;;;;;;6.20;5.10;;;;;;;37.27;26.17;100748.98;105442;270;38396;-73
2023/06/25 07:42:38;;;;;;;5.00;4.60;;;;;;;37.32;25.41;100748.35;105433;278;38523;-79
2023/06/25 07:45:13;;;;;;;4.70;4.40;;;;;;;37.19;24.83;100742.80;105437;278;38248;-73
2023/06/25 07:47:47;;;;;;;5.10;4.70;;;;;;;37.04;25.17;100746.34;105439;278;38575;-73
2023/06/25 07:50:22;;;;;;;4.60;4.30;;;;;;;36.91;24.89;100741.95;105404;275;39662;-73
2023/06/25 07:52:56;;;;;;;5.30;4.50;;;;;;;36.90;25.25;100737.55;105453;278;38619;-73
2023/06/25 07:55:38;;;;;;;4.80;4.40;;;;;;;37.29;25.29;100733.77;105412;279;39223;-74
2023/06/25 07:58:12;;;;;;;5.20;4.50;;;;;;;37.61;25.69;100735.77;105854;278;38560;-74
2023/06/25 08:00:46;;;;;;;4.80;4.40;;;;;;;37.91;25.62;100735.64;105411;278;39697;-74
2023/06/25 08:03:21;;;;;;;5.40;5.00;;;;;;;37.98;24.37;100733.54;105396;278;38778;-74
2023/06/25 08:05:56;;;;;;;5.00;4.50;;;;;;;37.88;25.11;100730.09;105240;278;38471;-74
2023/06/25 08:08:31;;;;;;;5.30;4.80;;;;;;;38.02;25.19;100730.20;105216;280;38395;-74
2023/06/25 08:11:05;;;;;;;5.40;4.90;;;;;;;38.17;24.85;100730.42;105459;278;39414;-80
2023/06/25 08:13:40;;;;;;;5.20;4.80;;;;;;;38.45;24.31;100727.86;105455;278;38825;-74
2023/06/25 08:16:14;;;;;;;4.80;4.30;;;;;;;38.36;24.74;100727.74;105264;279;41610;-73
2023/06/25 08:18:49;;;;;;;4.90;4.50;;;;;;;38.49;24.78;100729.20;105409;278;38361;-73
2023/06/25 08:21:24;;;;;;;4.60;4.10;;;;;;;38.70;24.65;100724.28;105438;278;38674;-73
2023/06/25 08:23:58;;;;;;;5.10;4.70;;;;;;;38.78;23.96;100725.09;105423;278;38280;-73
2023/06/25 08:26:33;;;;;;;5.10;4.60;;;;;;;38.81;23.61;100727.53;105255;278;40684;-73
2023/06/25 08:29:08;;;;;;;6.30;4.90;;;;;;;38.92;24.59;100728.40;105441;278;37241;-73
2023/06/25 08:31:42;;;;;;;4.70;4.30;;;;;;;39.10;24.21;100726.02;105447;278;38826;-74
2023/06/25 08:34:16;;;;;;;5.20;4.80;;;;;;;39.29;23.87;100723.39;105413;278;38281;-74
2023/06/25 08:36:51;;;;;;;5.30;4.60;;;;;;;39.47;23.85;100722.76;105435;278;39459;-74
2023/06/25 08:39:25;;;;;;;5.50;4.70;;;;;;;39.78;23.19;100727.55;105843;278;38928;-74
2023/06/25 08:41:59;;;;;;;4.90;4.50;;;;;;;39.88;23.06;100725.61;105397;279;39669;-74
2023/06/25 08:44:34;;;;;;;4.80;4.50;;;;;;;40.10;22.71;100726.84;105865;279;38244;-74
2023/06/25 08:47:09;;;;;;;4.90;4.60;;;;;;;40.27;22.11;100718.29;105418;278;39047;-74
2023/06/25 08:49:43;;;;;;;4.50;4.10;;;;;;;40.16;21.33;100716.87;105418;278;38830;-74
2023/06/25 08:52:18;;;;;;;4.70;4.30;;;;;;;39.70;21.30;100716.19;105411;278;40423;-74
2023/06/25 08:54:52;;;;;;;4.50;4.10;;;;;;;39.36;20.89;100713.48;105415;278;38514;-74
2023/06/25 08:57:27;;;;;;;5.50;4.70;;;;;;;39.06;21.62;100707.89;105871;278;39478;-74
2023/06/25 09:00:03;;;;;;;4.80;4.50;;;;;;;39.17;22.09;100710.90;105466;278;38675;-74
2023/06/25 09:02:39;;;;;;;5.30;4.60;;;;;;;39.20;21.99;100713.83;105523;279;38322;-79
2023/06/25 09:05:23;;;;;;;6.20;5.00;;;;;;;39.40;22.15;100711.72;105599;278;38398;-78
2023/06/25 09:07:58;;;;;;;5.80;5.20;;;;;;;39.43;22.13;100713.98;104795;278;881009;-77
2023/06/25 09:10:35;;;;;;;4.40;4.00;;;;;;;39.48;21.92;100716.25;105238;278;38493;-78
2023/06/25 09:13:09;;;;;;;5.30;4.10;;;;;;;38.84;21.34;100719.54;105457;278;38412;-78
2023/06/25 09:15:46;;;;;;;5.40;4.80;;;;;;;37.79;22.04;100719.03;105455;278;39743;-77
2023/06/25 09:18:23;;;;;;;4.70;4.30;;;;;;;37.13;22.89;100720.05;105438;278;38805;-74
2023/06/25 09:21:04;;;;;;;5.40;5.00;;;;;;;36.65;23.04;100721.02;105450;278;38287;-74
2023/06/25 09:23:38;;;;;;;5.70;4.80;;;;;;;35.55;22.98;100718.82;105452;279;38351;-74
2023/06/25 09:26:13;;;;;;;5.60;4.90;;;;;;;34.88;25.13;100718.93;105768;278;173239;-74
2023/06/25 09:28:59;;;;;;;5.20;4.80;;;;;;;34.80;25.51;100712.57;105220;278;170834;-74
2023/06/25 09:31:37;;;;;;;5.50;5.00;;;;;;;34.90;26.81;100710.86;105428;278;38249;-74
2023/06/25 09:34:09;;;;;;;;;;;;;;;34.93;27.29;100707.76;105467;279;39326;-73
2023/06/25 09:36:43;;;;;;;4.90;4.50;;;;;;;34.84;25.91;100709.89;105446;278;38119;-73
2023/06/25 09:39:18;;;;;;;4.50;4.10;;;;;;;34.17;25.47;100707.79;104783;278;888123;-73
2023/06/25 09:41:55;;;;;;;4.90;4.40;;;;;;;33.66;26.26;100708.06;105236;279;38409;-74
2023/06/25 09:44:30;;;;;;;5.20;4.80;;;;;;;33.60;26.94;100704.48;105441;278;38325;-73
2023/06/25 09:47:07;;;;;;;5.60;4.80;;;;;;;33.65;27.85;100696.08;105451;279;38243;-73
2023/06/25 09:49:41;;;;;;;4.80;4.40;;;;;;;33.74;26.93;100697.75;105414;278;38243;-73
2023/06/25 09:52:15;;;;;;;5.10;4.60;;;;;;;33.65;26.84;100689.48;105420;279;38899;-73
2023/06/25 09:54:50;;;;;;;4.40;4.00;;;;;;;33.64;27.21;100685.84;105887;278;38828;-73
2023/06/25 09:57:24;;;;;;;4.60;4.00;;;;;;;33.47;26.57;100683.54;105232;280;39578;-73
2023/06/25 09:59:59;;;;;;;5.20;4.30;;;;;;;32.91;26.35;100685.76;105442;278;38534;-73
2023/06/25 10:02:33;;;;;;;4.30;3.90;;;;;;;32.17;26.99;100683.17;105445;278;39958;-73
2023/06/25 10:05:08;;;;;;;4.90;4.40;;;;;;;31.61;28.26;100679.73;105427;278;38293;-73
2023/06/25 10:07:42;;;;;;;4.50;4.10;;;;;;;31.29;29.04;100680.11;105422;278;39684;-73
2023/06/25 10:10:24;;;;;;;4.70;4.30;;;;;;;30.98;29.54;100686.39;105430;278;40181;-73
2023/06/25 10:13:01;;;;;;;4.90;4.40;;;;;;;30.70;30.03;100685.88;105430;278;38499;-73
2023/06/25 10:15:36;;;;;;;5.50;4.80;;;;;;;30.39;30.24;100684.84;105416;278;38221;-73
2023/06/25 10:18:10;;;;;;;5.00;4.40;;;;;;;30.35;31.06;100684.27;105429;279;38505;-73
2023/06/25 10:20:49;;;;;;;5.20;4.70;;;;;;;30.48;30.11;100678.00;105707;278;173482;-73
2023/06/25 10:23:24;;;;;;;;;;;;;;;30.66;29.53;100672.33;105268;279;40487;-73
2023/06/25 10:25:59;;;;;;;5.10;4.70;;;;;;;30.86;29.50;100675.34;105475;278;38242;-73
2023/06/25 10:28:34;;;;;;;4.90;4.50;;;;;;;31.16;30.77;100671.41;105874;278;38289;-73
2023/06/25 10:31:16;;;;;;;5.30;4.70;;;;;;;31.30;29.37;100679.63;105257;280;38460;-73
2023/06/25 10:33:51;;;;;;;4.80;4.10;;;;;;;30.95;29.52;100680.60;105854;275;38831;-73
2023/06/25 10:36:29;;;;;;;4.90;4.50;;;;;;;30.58;30.34;100677.93;105429;279;38420;-73
2023/06/25 10:39:03;;;;;;;4.90;4.50;;;;;;;30.41;31.04;100676.13;105250;283;38686;-73
2023/06/25 10:41:38;;;;;;;4.80;4.40;;;;;;;30.54;31.01;100673.70;105413;278;38234;-73
2023/06/25 10:44:12;;;;;;;5.40;5.00;;;;;;;30.37;30.34;100669.94;105390;279;38687;-73
2023/06/25 10:46:49;;;;;;;4.80;4.40;;;;;;;30.08;30.70;100670.92;105453;278;39403;-73
2023/06/25 10:49:32;;;;;;;5.10;4.50;;;;;;;29.93;30.55;100669.52;105433;278;38362;-73
2023/06/25 10:52:12;;;;;;;5.30;4.60;;;;;;;29.73;30.86;100670.29;105441;278;38434;-73
2023/06/25 10:54:55;;;;;;;5.60;5.10;;;;;;;29.66;32.43;100671.46;105422;278;38255;-76
2023/06/25 10:57:49;;;;;;;5.60;5.00;;;;;;;29.61;33.00;100669.60;105239;280;38485;-79
2023/06/25 11:00:47;;;;;;;5.50;4.70;;;;;;;29.59;33.90;100671.73;105490;278;38336;-79
2023/06/25 11:03:37;;;;;;;5.90;5.00;;;;;;;29.55;33.11;100668.89;105257;279;38268;-79
2023/06/25 11:06:19;;;;;;;5.30;4.80;;;;;;;29.50;33.52;100671.15;105413;278;38500;-76
2023/06/25 11:08:58;;;;;;;5.30;4.80;;;;;;;29.51;33.38;100672.47;105257;279;38255;-76
2023/06/25 11:11:35;;;;;;;6.70;4.90;;;;;;;29.41;33.13;100668.80;105216;279;38284;-78
2023/06/25 11:14:11;;;;;;;6.80;5.40;;;;;;;29.21;32.65;100669.89;105520;278;38432;-78
2023/06/25 11:16:51;;;;;;;4.70;4.30;;;;;;;28.98;33.10;100666.49;105343;278;173508;-75
2023/06/25 11:19:32;;;;;;;5.30;4.60;;;;;;;28.80;33.07;100667.23;105117;281;40547;-75
2023/06/25 11:22:12;;;;;;;4.90;4.50;;;;;;;28.71;33.59;100664.50;105305;279;38629;-74
2023/06/25 11:24:47;;;;;;;5.80;4.80;;;;;;;28.64;33.53;100657.73;105285;278;889349;-73
2023/06/25 11:27:29;;;;;;;5.80;5.20;;;;;;;28.81;34.43;100654.74;105241;278;39745;-73
2023/06/25 11:30:09;;;;;;;5.20;4.80;;;;;;;29.14;34.59;100653.60;105466;278;38274;-75
2023/06/25 11:32:48;;;;;;;;;;;;;;;29.19;34.22;100646.88;105530;278;38235;-76
2023/06/25 11:35:40;;;;;;;5.50;5.00;;;;;;;29.31;34.41;100647.06;105427;278;38375;-76
2023/06/25 11:38:15;;;;;;;5.20;4.80;;;;;;;29.52;33.72;100640.09;105888;278;38256;-77
2023/06/25 11:41:06;;;;;;;6.60;5.20;;;;;;;29.68;33.62;100639.67;105241;278;40305;-78
2023/06/25 11:43:44;;;;;;;5.90;5.30;;;;;;;29.84;33.31;100629.83;105455;279;39284;-79
2023/06/25 11:46:22;;;;;;;5.70;5.10;;;;;;;30.02;32.98;100630.23;105496;278;38803;-76
2023/06/25 11:48:59;;;;;;;5.40;4.90;;;;;;;29.87;32.41;100628.04;105466;278;38681;-76
2023/06/25 11:51:37;;;;;;;7.10;5.40;;;;;;;29.65;32.64;100624.51;105413;279;38831;-77
2023/06/25 11:54:12;;;;;;;5.30;4.90;;;;;;;29.33;32.00;100626.51;105280;279;38220;-74
2023/06/25 11:57:08;;;;;;;5.40;5.00;;;;;;;29.02;32.41;100626.45;105446;279;38553;-76
2023/06/25 11:59:43;;;;;;;5.30;4.80;;;;;;;28.81;33.01;100625.48;105409;278;38423;-76
2023/06/25 12:02:18;;;;;;;5.40;4.90;;;;;;;28.69;34.16;100622.02;105397;278;38866;-77